2019 Ballard Cup Series II
Jun 17, 2019

Sloop Tavern Yacht Club

Committee Boat - Greyling

Race 3
R1 R2 R3 R4 R5 R6 Series Overall

Class: 1 - Non-Flying Sails Division - Start: 18:15:00 - Course: NMBN - Distance: 3.203      

Boat Name SailNo Boat Type Skipper Rating Club Start Finish Elapsed Corrected BCE Place OA
Whistling Swan 69494 Islander 36-1 Bill Pirrie 174 STYC 18:15:00 19:19:13 1:04:13 0:54:56 0:00:00 1 42
Wind Dancer 46489 Tartan 3800 Chris McMuldroch 153 STYC 18:15:00 19:19:30 1:04:30 0:56:20 0:01:24 2 45
Amoretto 79104 Jeanneau Arcada Martin Bower 204 STYC 18:15:00 19:28:31 1:13:31 1:02:38 0:07:42 3 49
White Rabbit 69366 J/40 Bradley Music 102 SBYC 18:15:00 19:25:37 1:10:37 1:05:10 0:10:14 4 51
Blue Lullaby 391 Newport 28-2 John H Endresen 231 STYC 18:15:00 19:37:01 1:22:01 1:09:41 0:14:45 5 53
No Ka Oi 15 J/80 Amy Deckelbaum 141 SSC 18:15:00 19:36:02 1:21:02 1:13:30 0:18:34 6 54
Steve Zeliadt 97971 Catalina 380 Eric Olson 153 STYC 18:15:00 19:45:50 1:30:50 1:22:40 0:27:44 7 55
Billabong 4200 Lancer 36 Robert Kirkman 153 STYC 18:15:00 DNC 9 57
Boadicea Helmet Ericson 32-3 Simon Ffitch 192 STYC 18:15:00 DNC 9 57
Frog Prints 79070 Dufr D 34 Tim Onders 192 STYC 18:15:00 DNC 9 57
Gusto 44119 Swan 441 Beth Miller 108 STYC 18:15:00 DNC 9 57
Midnight Escape 28206 Kirby (Mirage) 25 Borge Ellingsen 204 STYC 18:15:00 DNC 9 57
Stardust 79977 Hunter Legend 37.5 Tito Soto 153 STYC 18:15:00 DNC 9 57

Class: 2 - Flying Sails Division - Start: 18:20:00 - Course: NMBN - Distance: 3.203      

Boat Name SailNo Boat Type Skipper Rating Club Start Finish Elapsed Corrected BCE Place OA
Rock Lobster 59306 San Juan 7.7 Trent Piepho 210 STYC 18:20:00 19:24:49 1:04:49 0:53:36 0:00:00 1 37
Lady Too 59382 San Jaun 28 Damon Darley 201 STYC 18:20:00 19:24:25 1:04:25 0:53:41 0:00:05 2 38
Water Street 1376 Cal 2-24 Mark Jackson 252 STYC 18:20:00 19:27:45 1:07:45 0:54:18 0:00:42 3 41
Aquavit 3242 Interational Folkboat David Sinson 285 STYC 18:20:00 19:32:09 1:12:09 0:56:56 0:03:20 4 46
Wavelength 49922 Ranger 29 Eric Dunkel 198 STYC 18:20:00 DNC 6 57

Class: 3 - Flying Sails Division - Start: 18:25:00 - Course: NMBN - Distance: 3.203      

Boat Name SailNo Boat Type Skipper Rating Club Start Finish Elapsed Corrected BCE Place OA
Perfectly Strange 87210 Pocket Rocket 22-1 Paul Kalina 174 STYC 18:25:00 19:24:38 0:59:38 0:50:21 0:00:00 1 26
More Uff Da 26 Moore 24-1 Ben Braden 168 STYC 18:25:00 19:25:18 1:00:18 0:51:20 0:00:59 2 29
La Lucha Moore 131 Moore 24 Joe Grieser 168 STYC 18:25:00 19:27:12 1:02:12 0:53:14 0:02:53 3 33
Elixir 29 Aphrodite 101 Megan Kogut 150 STYC 18:25:00 19:26:24 1:01:24 0:53:24 0:03:03 4 35
The Banana Stand 104 Santa Cruz 27 Adam Yuret 162 STYC 18:25:00 19:27:23 1:02:23 0:53:44 0:03:23 5 39
Norn 49450 Santa Cruz 27 Mitch Leupold 150 STYC 18:25:00 19:41:28 1:16:28 1:08:28 0:18:07 6 52
Nw Filth 161 Martin 242 Jonathan Anderson 168 STYC 18:25:00 DNC 8 57
Three Ring Circus 37 Olson 25-1 Nate Creitz 174 STYC 18:25:00 DNC 8 57
Wild Card 55 Santa Cruz 27 Mike Cain 141 STYC 18:25:00 DNC 8 57
Zap 59269 Zap 26 Don Sarin 147 STYC 18:25:00 DNC 8 57

Class: 4 - Flying Sails Division - Start: 18:30:00 - Course: NMBN - Distance: 3.203      

Boat Name SailNo Boat Type Skipper Rating Club Start Finish Elapsed Corrected BCE Place OA
Velella 150 Wylie 31 Ryan Helling 165 STYC 18:30:00 19:28:54 0:58:54 0:50:06 0:00:00 1 25
Mata Hari 1660 Catalina 36 Mkii Jeff Blyth 147 STYC 18:30:00 19:31:17 1:01:17 0:53:26 0:03:20 2 36
Airloom 69410 Baba 40-2 Tim Morgenroth 168 STYC 18:30:00 19:32:57 1:02:57 0:53:59 0:03:53 3 40
Kamoon Na Jeanneau Michael Taft 163 STYC 18:30:00 19:37:58 1:07:58 0:59:16 0:09:10 4 47
20degrees 18602 Wylie 34 Duncan Chalmers 150 STYC 18:30:00 19:42:49 1:12:49 1:04:49 0:14:43 5 50
Celtic Breeze 233 Ericson 35 Mk3 Glenn Knitter 159 STYC 18:30:00 DNC 7 57
Sea Haven 930 Catalina 34 Cary Kaczowka 153 STYC 18:30:00 DNC 7 57
Grayling 7 Q-Class Duke H Phan 144 STYC 18:30:00 CB 7 57

Class: 5 - Flying Sails Division - Start: 18:35:00 - Course: NMBN - Distance: 3.203      

Boat Name SailNo Boat Type Skipper Rating Club Start Finish Elapsed Corrected BCE Place OA
Crazy Ivan USA-151 J/80 Bryan Rhodes 129 STYC 18:35:00 19:26:31 0:51:31 0:44:38 0:00:00 1 10.5
Reckless 296 J/80 Emre Sezer 129 STYC 18:35:00 19:27:01 0:52:01 0:45:08 0:00:30 2 12
Fearful Symmetry 331 J/80 Elise Sivilay 129 SSC 18:35:00 19:30:15 0:55:15 0:48:22 0:03:44 3 22
Underdog 85 J/80 Dulnath Wijayratne 129 SSC 18:35:00 19:32:33 0:57:33 0:50:40 0:06:02 4 27
Taj Mahal 445 J/80 Ian Wong 129 SSC 18:35:00 19:32:54 0:57:54 0:51:01 0:06:23 5 28
Namaste 257 J/80 John Lueders 129 SSC 18:35:00 19:34:05 0:59:05 0:52:12 0:07:34 6 30
Jolly Green 1 J/80 Mike Poole 129 SSC 18:35:00 19:37:11 1:02:11 0:55:18 0:10:40 7 43
Stellar J 546 J/80 Andreas Wieberneit 129 SSC 18:35:00 19:41:36 1:06:36 0:59:43 0:15:05 8 48
Uproar 41 J/80 Steve Neidhardt 129 SSC 18:35:00 DNC 10 57

Class: 6 - Flying Sails Division - Start: 18:40:00 - Course: NMBN - Distance: 3.203      

Boat Name SailNo Boat Type Skipper Rating Club Start Finish Elapsed Corrected BCE Place OA
Poke & Destroy 69061 Evelyn 32-2 Alex P Simanis 93 STYC 18:40:00 19:27:04 0:47:04 0:42:06 0:00:00 1 5
Gaucho 68 Ross 930 John Cahill 114 CYC 18:40:00 19:29:46 0:49:46 0:43:41 0:01:35 2 7
Different Drummer 52804 Wauqueiz Centurion 40s Charles Hill 81 STYC 18:40:00 19:28:01 0:48:01 0:43:42 0:01:36 3 8
Poisson Soluble 69351 Hobie 33 Robert Horsley 96 STYC 18:40:00 19:30:59 0:50:59 0:45:52 0:03:46 4 15
Wizard 40427 J/27 Leo Morales 135 WYC 18:40:00 19:33:58 0:53:58 0:46:46 0:04:40 5 17
Ruby 87603 J/29 Mh John Kazaras 120 STYC 18:40:00 19:33:13 0:53:13 0:46:49 0:04:43 6 18
Outlaw 77108 J/30 Cindy Gossett 138 STYC 18:40:00 19:34:33 0:54:33 0:47:11 0:05:05 7 19
Wings 244 J/29 (Fractional Rig) Jim Moynihan 120 STYC 18:40:00 19:33:51 0:53:51 0:47:27 0:05:21 8 20
Kowloon 17 Olson 911 Ken Chin 129 STYC 18:40:00 19:42:47 1:02:47 0:55:54 0:13:48 9 44
Latitude 60680 Jeanneau 409 Bill Gibson 93 STYC 18:40:00 DNC 11 57

Class: 7 - Flying Sails Division - Start: 18:45:00 - Course: NMBN - Distance: 3.203      

Boat Name SailNo Boat Type Skipper Rating Club Start Finish Elapsed Corrected BCE Place OA
Corvo 105 475 J/105 Tom Kerr 93 STYC 18:45:00 19:35:14 0:50:14 0:45:16 0:00:00 1 13
Liftoff 621 J/105 Philippe M Le Mouel 93 STYC 18:45:00 19:36:11 0:51:11 0:46:13 0:00:57 2 16
Avalanche 495 J/105 Jeremy Boynes 93 STYC 18:45:00 19:38:15 0:53:15 0:48:17 0:03:01 3 21
Puff 115 J/105 Ryan Porter 93 SSC 18:45:00 19:38:47 0:53:47 0:48:49 0:03:33 4 23
Paladin 412 J/105 Phil Bylsma 93 SSC 18:45:00 19:42:12 0:57:12 0:52:14 0:06:58 5 31
Creative 51911 J/105 Lloyd Fogg 93 SSC 18:45:00 19:42:50 0:57:50 0:52:52 0:07:36 6 32
Peer Gynt 235 J/105 Sara Billey 93 STYC 18:45:00 19:43:13 0:58:13 0:53:15 0:07:59 7 34

Class: 8 - Flying Sails Division - Start: 18:50:00 - Course: NMBN - Distance: 3.203      

Boat Name SailNo Boat Type Skipper Rating Club Start Finish Elapsed Corrected BCE Place OA
Project Mayhem USA 64 Farr 30 Grady Morgan 54 CYC 18:50:00 19:31:26 0:41:26 0:38:33 0:00:00 1 1
Nefarious USA 53 Farr 30 Daniel Randolph 54 STYC 18:50:00 19:31:45 0:41:45 0:38:52 0:00:19 2 2
Eclipse 256 J/109-2 Fraser 69 STYC 18:50:00 19:33:07 0:43:07 0:39:26 0:00:53 3 3
With Grace 50791 J/120 Ken S Jones 57 STYC 18:50:00 19:35:05 0:45:05 0:42:02 0:03:29 4 4
Tachyon 36000 Farr 39 C/R Jack Yinger 18 CYC 18:50:00 19:34:30 0:44:30 0:43:32 0:04:59 5 6
Lapa 309 J/109 Michael Campbell 69 STYC 18:50:00 19:37:51 0:47:51 0:44:10 0:05:37 6 9
Those Guys 18155 J/35 Jenny Heins 72 STYC 18:50:00 19:38:29 0:48:29 0:44:38 0:06:05 7 10.5
Freda Mae 79030 Multihull - Corsair F31 Vincent Depillis -9 Northwest Multihull Assocation 18:50:00 19:34:55 0:44:55 0:45:24 0:06:51 8 14
Escape 69160 Corsair F -27 Yury Palatnik 79 STYC 18:50:00 19:43:10 0:53:10 0:48:57 0:10:24 9 24
Bat Out Of Hell USA 55 Farr 30 Lance Staughton 54 STYC 18:50:00 DNC 11 57

STYC scoring (Tue, May 21, 2019 - 00:05:45 ver)